Aérodrome :
LOGIN :

S'inscrire | Disclaimer

   EN    FR    IT 

 










Légende :    VFR   VFR Marginal   IFR   IFR Intensif   IFR Très Intensif
Visi : 
Plafond : 
>= 8 km
>= 3000ft
5 à 8 km
1000 à 3000 ft
1500m à 5 km
500 à 1000 ft
800 à 1500m
200 à 500 ft
< 800m
< 200 ft
Symboles :   Orages  Brouillard  Fortes neiges  Fortes précipitations  Vent > 20 kt
SIGMETs :   Divers  Orages  Givrage  Turbulence  Onde Orograph.  Cendres Volcan.






- Altitude de l'aérodrome : 157 ft
- Code IATA : LIL


LFQQ - Lille Lesquin

DERNIER METAR :
  • 311630Z AUTO 06010KT 030V090 CAVOK 23/03 Q1019 NOSIG

METARs EXPIRÉS :
  • 311600Z AUTO 05010KT 010V090 CAVOK 23/04 Q1019 NOSIG
  • 311530Z AUTO 05009KT 020V100 CAVOK 23/05 Q1020 NOSIG
  • 311500Z AUTO 06011KT 030V100 CAVOK 23/05 Q1020 NOSIG
  • 311430Z AUTO 06009KT 020V100 CAVOK 23/05 Q1020 NOSIG
  • 311400Z AUTO 05011KT 020V100 CAVOK 22/04 Q1020 NOSIG

TAF TAF LFQQ
Valide du 31 à 12h jusqu'au 01 à 18h UTC


311100Z 3112/0118 05013KT CAVOK
ATIS : +33 3 20 16 19 54



MET'MAP, la Météo Aéronautique d'un coup d'oeil ! - Copyright ORBIFLY Décembre 2007 - Disclaimer

ORBIFLY MET'MAP TEAM :

Programmation & Développement : Alexandra Zaïnal
Sur une idée originale de : Baudouin d'Aumeries
Assistance à la programmation : Marc-Olivier Méhu
Soutien technique & logistique : Manuel Goepfert

Contact : metmap@orbifly.com




SOURCES & CREDITS :

   NOAA